sensor_id;sensor_type;location;lat;lon;timestamp;pressure;altitude;pressure_sealevel;temperature;humidity
22647;BME280;11490;42.726;23.268;2022-07-26T00:02:06;95040.81;;;22.34;73.87
22647;BME280;11490;42.726;23.268;2022-07-26T00:04:32;95016.56;;;22.63;72.86
22647;BME280;11490;42.726;23.268;2022-07-26T00:06:57;95043.19;;;22.84;72.59
22647;BME280;11490;42.726;23.268;2022-07-26T00:09:23;95031.31;;;22.80;72.33
22647;BME280;11490;42.726;23.268;2022-07-26T00:11:49;95030.00;;;22.69;74.43
22647;BME280;11490;42.726;23.268;2022-07-26T00:14:14;95029.88;;;22.74;72.48
22647;BME280;11490;42.726;23.268;2022-07-26T00:16:40;95033.53;;;22.78;72.01
22647;BME280;11490;42.726;23.268;2022-07-26T00:21:34;95029.03;;;22.64;72.58
22647;BME280;11490;42.726;23.268;2022-07-26T00:24:02;95010.00;;;22.56;72.50
22647;BME280;11490;42.726;23.268;2022-07-26T00:26:27;95026.28;;;22.56;72.65
22647;BME280;11490;42.726;23.268;2022-07-26T00:28:53;95017.50;;;22.50;73.86
22647;BME280;11490;42.726;23.268;2022-07-26T00:31:18;95027.56;;;22.50;73.03
22647;BME280;11490;42.726;23.268;2022-07-26T00:33:44;95022.94;;;22.50;73.39
22647;BME280;11490;42.726;23.268;2022-07-26T00:36:09;94996.53;;;22.42;73.18
22647;BME280;11490;42.726;23.268;2022-07-26T00:38:35;95017.16;;;22.43;73.72
22647;BME280;11490;42.726;23.268;2022-07-26T00:41:01;95014.94;;;22.45;74.18
22647;BME280;11490;42.726;23.268;2022-07-26T00:43:26;95014.28;;;22.48;73.26
22647;BME280;11490;42.726;23.268;2022-07-26T00:45:51;95013.97;;;22.50;73.75
22647;BME280;11490;42.726;23.268;2022-07-26T00:48:17;94985.84;;;22.37;73.83
22647;BME280;11490;42.726;23.268;2022-07-26T00:50:43;95020.88;;;22.56;73.37
22647;BME280;11490;42.726;23.268;2022-07-26T00:53:08;95005.81;;;22.41;73.90
22647;BME280;11490;42.726;23.268;2022-07-26T00:55:33;95016.69;;;22.41;73.72
22647;BME280;11490;42.726;23.268;2022-07-26T00:57:59;95009.75;;;22.18;74.55
22647;BME280;11490;42.726;23.268;2022-07-26T01:00:28;95013.63;;;22.34;73.67
22647;BME280;11490;42.726;23.268;2022-07-26T01:02:55;95017.47;;;22.33;73.96
22647;BME280;11490;42.726;23.268;2022-07-26T01:05:21;95011.97;;;22.16;74.58
22647;BME280;11490;42.726;23.268;2022-07-26T01:07:48;95016.59;;;22.15;74.62
22647;BME280;11490;42.726;23.268;2022-07-26T01:10:14;95024.28;;;22.13;75.22
22647;BME280;11490;42.726;23.268;2022-07-26T01:12:43;95018.94;;;22.00;75.97
22647;BME280;11490;42.726;23.268;2022-07-26T01:15:10;95026.31;;;22.08;75.76
22647;BME280;11490;42.726;23.268;2022-07-26T01:17:36;95014.50;;;22.04;75.38
22647;BME280;11490;42.726;23.268;2022-07-26T01:20:02;95018.56;;;21.93;76.01
22647;BME280;11490;42.726;23.268;2022-07-26T01:22:28;95017.72;;;21.75;76.18
22647;BME280;11490;42.726;23.268;2022-07-26T01:24:53;95020.44;;;21.83;76.72
22647;BME280;11490;42.726;23.268;2022-07-26T01:27:19;95023.31;;;21.78;76.34
22647;BME280;11490;42.726;23.268;2022-07-26T01:29:44;95011.13;;;21.67;76.03
22647;BME280;11490;42.726;23.268;2022-07-26T01:32:10;95026.16;;;21.73;76.15
22647;BME280;11490;42.726;23.268;2022-07-26T01:34:35;95004.34;;;21.56;76.49
22647;BME280;11490;42.726;23.268;2022-07-26T01:37:01;95008.53;;;21.62;77.05
22647;BME280;11490;42.726;23.268;2022-07-26T01:39:26;95010.41;;;21.53;77.65
22647;BME280;11490;42.726;23.268;2022-07-26T01:41:52;95005.97;;;21.57;76.49
22647;BME280;11490;42.726;23.268;2022-07-26T01:44:18;94992.91;;;21.14;78.22
22647;BME280;11490;42.726;23.268;2022-07-26T01:46:43;95006.00;;;21.35;77.57
22647;BME280;11490;42.726;23.268;2022-07-26T01:49:09;95006.31;;;21.33;77.08
22647;BME280;11490;42.726;23.268;2022-07-26T01:51:34;95012.09;;;21.40;77.08
22647;BME280;11490;42.726;23.268;2022-07-26T01:54:00;95014.66;;;21.45;76.70
22647;BME280;11490;42.726;23.268;2022-07-26T01:56:26;95019.56;;;21.35;76.84
22647;BME280;11490;42.726;23.268;2022-07-26T01:58:52;95010.88;;;21.24;77.14
22647;BME280;11490;42.726;23.268;2022-07-26T02:01:17;95011.41;;;21.12;77.87
22647;BME280;11490;42.726;23.268;2022-07-26T02:03:43;95008.63;;;21.04;78.58
22647;BME280;11490;42.726;23.268;2022-07-26T02:06:08;95016.03;;;21.12;78.30
22647;BME280;11490;42.726;23.268;2022-07-26T02:08:34;95012.63;;;21.06;77.95
22647;BME280;11490;42.726;23.268;2022-07-26T02:10:59;95029.41;;;21.08;78.28
22647;BME280;11490;42.726;23.268;2022-07-26T02:13:46;95026.31;;;21.01;78.79
22647;BME280;11490;42.726;23.268;2022-07-26T02:16:13;95030.34;;;21.04;78.62
22647;BME280;11490;42.726;23.268;2022-07-26T02:18:39;95030.88;;;21.14;78.04
22647;BME280;11490;42.726;23.268;2022-07-26T02:21:07;95029.91;;;21.10;78.30
22647;BME280;11490;42.726;23.268;2022-07-26T02:23:33;95023.75;;;20.96;78.47
22647;BME280;11490;42.726;23.268;2022-07-26T02:25:59;95019.78;;;21.02;78.73
22647;BME280;11490;42.726;23.268;2022-07-26T02:28:25;95027.06;;;21.16;78.20
22647;BME280;11490;42.726;23.268;2022-07-26T02:30:51;95032.06;;;21.22;78.65
22647;BME280;11490;42.726;23.268;2022-07-26T02:33:17;95021.63;;;21.16;79.83
22647;BME280;11490;42.726;23.268;2022-07-26T02:35:43;95014.44;;;21.11;79.19
22647;BME280;11490;42.726;23.268;2022-07-26T02:38:10;95023.88;;;21.13;79.18
22647;BME280;11490;42.726;23.268;2022-07-26T02:40:37;95028.28;;;21.09;79.44
22647;BME280;11490;42.726;23.268;2022-07-26T02:43:05;95022.25;;;21.12;78.76
22647;BME280;11490;42.726;23.268;2022-07-26T02:45:31;95035.28;;;21.24;78.89
22647;BME280;11490;42.726;23.268;2022-07-26T02:47:56;95034.59;;;21.41;78.14
22647;BME280;11490;42.726;23.268;2022-07-26T02:50:23;95039.84;;;21.37;78.36
22647;BME280;11490;42.726;23.268;2022-07-26T02:52:50;95023.38;;;21.34;78.06
22647;BME280;11490;42.726;23.268;2022-07-26T02:55:17;95024.34;;;21.38;78.07
22647;BME280;11490;42.726;23.268;2022-07-26T02:57:43;95034.41;;;21.37;78.52
22647;BME280;11490;42.726;23.268;2022-07-26T03:00:10;95038.50;;;21.26;79.87
22647;BME280;11490;42.726;23.268;2022-07-26T03:02:36;95024.28;;;21.21;78.06
22647;BME280;11490;42.726;23.268;2022-07-26T03:05:03;95033.72;;;21.09;79.49
22647;BME280;11490;42.726;23.268;2022-07-26T03:07:28;95033.13;;;21.12;78.86
22647;BME280;11490;42.726;23.268;2022-07-26T03:09:54;95028.28;;;21.09;78.86
22647;BME280;11490;42.726;23.268;2022-07-26T03:12:19;95026.16;;;20.84;80.21
22647;BME280;11490;42.726;23.268;2022-07-26T03:14:45;95023.75;;;20.96;79.25
22647;BME280;11490;42.726;23.268;2022-07-26T03:17:10;94994.28;;;20.81;79.03
22647;BME280;11490;42.726;23.268;2022-07-26T03:19:35;94991.91;;;20.66;79.32
22647;BME280;11490;42.726;23.268;2022-07-26T03:22:01;95010.56;;;20.67;79.98
22647;BME280;11490;42.726;23.268;2022-07-26T03:24:27;95042.34;;;20.89;79.82
22647;BME280;11490;42.726;23.268;2022-07-26T03:26:52;95000.94;;;20.75;79.93
22647;BME280;11490;42.726;23.268;2022-07-26T03:29:17;95029.22;;;20.83;79.50
22647;BME280;11490;42.726;23.268;2022-07-26T03:31:43;95026.69;;;20.86;79.81
22647;BME280;11490;42.726;23.268;2022-07-26T03:34:08;95047.03;;;20.97;79.27
22647;BME280;11490;42.726;23.268;2022-07-26T03:36:34;95033.84;;;20.82;80.03
22647;BME280;11490;42.726;23.268;2022-07-26T03:38:59;95054.16;;;20.93;80.17
22647;BME280;11490;42.726;23.268;2022-07-26T03:41:27;94989.31;;;20.61;79.64
22647;BME280;11490;42.726;23.268;2022-07-26T03:43:55;95024.19;;;20.76;80.16
22647;BME280;11490;42.726;23.268;2022-07-26T03:46:21;95025.19;;;20.80;79.78
22647;BME280;11490;42.726;23.268;2022-07-26T03:48:46;95014.34;;;20.80;79.60
22647;BME280;11490;42.726;23.268;2022-07-26T03:51:12;95033.47;;;20.75;80.37
22647;BME280;11490;42.726;23.268;2022-07-26T03:53:37;95029.84;;;20.66;81.71
22647;BME280;11490;42.726;23.268;2022-07-26T03:56:03;95015.97;;;20.81;81.24
22647;BME280;11490;42.726;23.268;2022-07-26T03:58:46;95021.75;;;20.88;80.93
22647;BME280;11490;42.726;23.268;2022-07-26T04:01:12;95015.91;;;20.95;80.24
22647;BME280;11490;42.726;23.268;2022-07-26T04:03:37;95038.53;;;21.12;81.04
22647;BME280;11490;42.726;23.268;2022-07-26T04:06:03;95022.13;;;20.95;80.18
22647;BME280;11490;42.726;23.268;2022-07-26T04:08:28;95017.56;;;20.82;80.53
22647;BME280;11490;42.726;23.268;2022-07-26T04:10:54;95030.88;;;20.92;81.45
22647;BME280;11490;42.726;23.268;2022-07-26T04:13:20;94991.50;;;20.72;80.43
22647;BME280;11490;42.726;23.268;2022-07-26T04:15:48;95027.19;;;20.88;81.02
22647;BME280;11490;42.726;23.268;2022-07-26T04:18:13;95023.06;;;21.13;80.39
22647;BME280;11490;42.726;23.268;2022-07-26T04:20:39;95020.56;;;21.17;79.71
22647;BME280;11490;42.726;23.268;2022-07-26T04:23:05;95008.88;;;20.94;80.37
22647;BME280;11490;42.726;23.268;2022-07-26T04:25:30;95014.13;;;20.90;79.97
22647;BME280;11490;42.726;23.268;2022-07-26T04:27:58;95029.16;;;20.96;79.39
22647;BME280;11490;42.726;23.268;2022-07-26T04:30:24;95010.28;;;20.91;79.79
22647;BME280;11490;42.726;23.268;2022-07-26T04:32:49;95003.50;;;20.80;80.78
22647;BME280;11490;42.726;23.268;2022-07-26T04:35:14;95002.66;;;20.93;80.25
22647;BME280;11490;42.726;23.268;2022-07-26T04:37:40;95010.47;;;20.95;79.61
22647;BME280;11490;42.726;23.268;2022-07-26T04:40:07;95025.75;;;21.27;79.35
22647;BME280;11490;42.726;23.268;2022-07-26T04:42:33;95008.19;;;21.10;78.60
22647;BME280;11490;42.726;23.268;2022-07-26T04:44:59;95014.59;;;21.28;78.96
22647;BME280;11490;42.726;23.268;2022-07-26T04:47:24;94964.44;;;21.03;79.15
22647;BME280;11490;42.726;23.268;2022-07-26T04:49:50;95029.28;;;21.58;78.48
22647;BME280;11490;42.726;23.268;2022-07-26T04:52:15;95024.47;;;21.55;78.58
22647;BME280;11490;42.726;23.268;2022-07-26T04:54:41;95035.81;;;21.57;79.92
22647;BME280;11490;42.726;23.268;2022-07-26T04:57:06;95029.63;;;21.65;78.10
22647;BME280;11490;42.726;23.268;2022-07-26T04:59:31;95026.31;;;21.77;77.90
22647;BME280;11490;42.726;23.268;2022-07-26T05:02:00;95018.16;;;21.99;77.34
22647;BME280;11490;42.726;23.268;2022-07-26T05:04:25;95047.94;;;22.13;77.74
22647;BME280;11490;42.726;23.268;2022-07-26T05:06:51;95019.34;;;21.84;77.15
22647;BME280;11490;42.726;23.268;2022-07-26T05:09:16;95047.44;;;22.11;76.73
22647;BME280;11490;42.726;23.268;2022-07-26T05:11:42;95015.13;;;22.01;77.40
22647;BME280;11490;42.726;23.268;2022-07-26T05:14:07;94973.94;;;22.16;76.00
22647;BME280;11490;42.726;23.268;2022-07-26T05:16:32;95017.47;;;22.33;76.78
22647;BME280;11490;42.726;23.268;2022-07-26T05:18:58;95022.94;;;22.50;75.48
22647;BME280;11490;42.726;23.268;2022-07-26T05:21:23;95001.84;;;22.64;75.17
22647;BME280;11490;42.726;23.268;2022-07-26T05:23:49;95014.16;;;22.71;74.31
22647;BME280;11490;42.726;23.268;2022-07-26T05:26:14;94994.66;;;22.51;74.58
22647;BME280;11490;42.726;23.268;2022-07-26T05:28:40;94984.69;;;22.38;75.02
22647;BME280;11490;42.726;23.268;2022-07-26T05:31:06;94992.53;;;22.48;73.87
22647;BME280;11490;42.726;23.268;2022-07-26T05:33:31;94997.03;;;22.61;74.88
22647;BME280;11490;42.726;23.268;2022-07-26T05:35:56;94988.88;;;22.61;75.00
22647;BME280;11490;42.726;23.268;2022-07-26T05:38:22;95008.44;;;22.89;74.53
22647;BME280;11490;42.726;23.268;2022-07-26T05:40:49;95017.25;;;22.95;73.34
22647;BME280;11490;42.726;23.268;2022-07-26T05:43:15;94993.53;;;22.70;74.38
22647;BME280;11490;42.726;23.268;2022-07-26T05:45:40;94985.22;;;22.92;73.88
22647;BME280;11490;42.726;23.268;2022-07-26T05:48:09;94976.75;;;22.93;73.87
22647;BME280;11490;42.726;23.268;2022-07-26T05:50:34;95012.75;;;23.16;73.57
22647;BME280;11490;42.726;23.268;2022-07-26T05:52:59;94987.81;;;22.97;73.06
22647;BME280;11490;42.726;23.268;2022-07-26T05:55:25;95017.56;;;23.19;73.61
22647;BME280;11490;42.726;23.268;2022-07-26T05:57:50;94984.44;;;23.09;74.21
22647;BME280;11490;42.726;23.268;2022-07-26T06:00:16;95007.28;;;23.33;73.41
22647;BME280;11490;42.726;23.268;2022-07-26T06:02:42;95004.72;;;23.46;72.51
22647;BME280;11490;42.726;23.268;2022-07-26T06:05:07;94977.84;;;23.18;73.44
22647;BME280;11490;42.726;23.268;2022-07-26T06:07:36;94986.44;;;23.55;72.26
22647;BME280;11490;42.726;23.268;2022-07-26T06:10:02;94989.34;;;23.50;73.10
22647;BME280;11490;42.726;23.268;2022-07-26T06:12:27;94972.69;;;23.60;71.54
22647;BME280;11490;42.726;23.268;2022-07-26T06:14:53;94963.69;;;23.68;71.04
22647;BME280;11490;42.726;23.268;2022-07-26T06:17:18;94980.13;;;23.80;71.38
22647;BME280;11490;42.726;23.268;2022-07-26T06:19:44;94978.78;;;23.95;71.80
22647;BME280;11490;42.726;23.268;2022-07-26T06:22:09;94994.03;;;24.25;70.33
22647;BME280;11490;42.726;23.268;2022-07-26T06:24:35;94980.09;;;24.27;71.70
22647;BME280;11490;42.726;23.268;2022-07-26T06:27:00;94992.09;;;24.55;71.48
22647;BME280;11490;42.726;23.268;2022-07-26T06:29:25;94977.31;;;24.56;70.39
22647;BME280;11490;42.726;23.268;2022-07-26T06:31:51;94986.13;;;24.62;69.52
22647;BME280;11490;42.726;23.268;2022-07-26T06:34:16;94989.19;;;24.60;70.56
22647;BME280;11490;42.726;23.268;2022-07-26T06:36:42;94992.09;;;24.55;70.37
22647;BME280;11490;42.726;23.268;2022-07-26T06:39:07;94978.41;;;24.84;68.42
22647;BME280;11490;42.726;23.268;2022-07-26T06:41:33;94986.13;;;25.03;68.25
22647;BME280;11490;42.726;23.268;2022-07-26T06:43:58;94989.78;;;25.28;68.33
22647;BME280;11490;42.726;23.268;2022-07-26T06:46:24;94988.09;;;25.36;67.69
22647;BME280;11490;42.726;23.268;2022-07-26T06:48:49;94985.66;;;25.01;67.24
22647;BME280;11490;42.726;23.268;2022-07-26T06:51:15;94993.41;;;25.32;68.19
22647;BME280;11490;42.726;23.268;2022-07-26T06:53:41;94982.31;;;25.37;67.36
22647;BME280;11490;42.726;23.268;2022-07-26T06:56:06;94988.72;;;25.53;67.19
22647;BME280;11490;42.726;23.268;2022-07-26T06:58:32;94976.72;;;25.79;66.95
22647;BME280;11490;42.726;23.268;2022-07-26T07:00:57;94980.00;;;25.72;66.03
22647;BME280;11490;42.726;23.268;2022-07-26T07:03:23;94979.47;;;25.91;65.37
22647;BME280;11490;42.726;23.268;2022-07-26T07:05:48;94985.63;;;26.00;65.54
22647;BME280;11490;42.726;23.268;2022-07-26T07:08:14;94990.09;;;26.17;66.23
22647;BME280;11490;42.726;23.268;2022-07-26T07:10:40;94975.72;;;26.08;65.09
22647;BME280;11490;42.726;23.268;2022-07-26T07:13:06;94972.66;;;26.09;64.34
22647;BME280;11490;42.726;23.268;2022-07-26T07:15:32;94979.69;;;26.10;65.51
22647;BME280;11490;42.726;23.268;2022-07-26T07:17:57;94951.72;;;26.01;65.64
22647;BME280;11490;42.726;23.268;2022-07-26T07:20:22;94975.38;;;25.97;64.38
22647;BME280;11490;42.726;23.268;2022-07-26T07:22:48;94972.88;;;26.40;65.94
22647;BME280;11490;42.726;23.268;2022-07-26T07:25:13;94970.81;;;26.50;64.26
22647;BME280;11490;42.726;23.268;2022-07-26T07:27:39;94970.81;;;26.50;62.65
22647;BME280;11490;42.726;23.268;2022-07-26T07:30:05;94968.50;;;26.76;62.55
22647;BME280;11490;42.726;23.268;2022-07-26T07:32:31;94982.16;;;26.88;61.82
22647;BME280;11490;42.726;23.268;2022-07-26T07:34:56;94941.19;;;26.52;64.49
22647;BME280;11490;42.726;23.268;2022-07-26T07:37:21;94952.84;;;27.01;62.97
22647;BME280;11490;42.726;23.268;2022-07-26T07:39:47;94942.88;;;27.08;60.20
22647;BME280;11490;42.726;23.268;2022-07-26T07:42:13;94950.66;;;27.06;60.51
22647;BME280;11490;42.726;23.268;2022-07-26T07:44:39;94955.31;;;27.34;60.84
22647;BME280;11490;42.726;23.268;2022-07-26T07:47:08;94972.94;;;27.48;60.48
22647;BME280;11490;42.726;23.268;2022-07-26T07:49:34;94955.66;;;27.04;60.02
22647;BME280;11490;42.726;23.268;2022-07-26T07:52:00;94959.31;;;27.52;61.46
22647;BME280;11490;42.726;23.268;2022-07-26T07:54:25;94963.72;;;27.69;58.80
22647;BME280;11490;42.726;23.268;2022-07-26T07:56:52;94947.28;;;27.84;58.27
22647;BME280;11490;42.726;23.268;2022-07-26T07:59:21;94945.69;;;27.40;58.69
22647;BME280;11490;42.726;23.268;2022-07-26T08:01:46;94959.72;;;27.82;59.70
22647;BME280;11490;42.726;23.268;2022-07-26T08:04:12;94938.72;;;27.86;59.64
22647;BME280;11490;42.726;23.268;2022-07-26T08:06:37;94940.53;;;27.66;58.41
22647;BME280;11490;42.726;23.268;2022-07-26T08:09:06;94899.59;;;27.57;59.52
22647;BME280;11490;42.726;23.268;2022-07-26T08:11:32;94955.84;;;28.30;58.80
22647;BME280;11490;42.726;23.268;2022-07-26T08:13:57;94941.69;;;28.28;57.84
22647;BME280;11490;42.726;23.268;2022-07-26T08:16:22;94942.06;;;28.61;57.69
22647;BME280;11490;42.726;23.268;2022-07-26T08:18:48;94944.09;;;28.80;57.94
22647;BME280;11490;42.726;23.268;2022-07-26T08:21:13;94940.97;;;28.82;56.27
22647;BME280;11490;42.726;23.268;2022-07-26T08:23:39;94945.19;;;28.95;56.80
22647;BME280;11490;42.726;23.268;2022-07-26T08:26:04;94937.84;;;29.22;55.63
22647;BME280;11490;42.726;23.268;2022-07-26T08:28:30;94935.59;;;29.27;54.20
22647;BME280;11490;42.726;23.268;2022-07-26T08:30:55;94932.31;;;29.18;52.61
22647;BME280;11490;42.726;23.268;2022-07-26T08:33:21;94928.06;;;29.63;55.14
22647;BME280;11490;42.726;23.268;2022-07-26T08:35:47;94929.44;;;29.95;54.00
22647;BME280;11490;42.726;23.268;2022-07-26T08:38:13;94921.56;;;29.94;51.38
22647;BME280;11490;42.726;23.268;2022-07-26T08:40:38;94913.50;;;30.04;50.73
22647;BME280;11490;42.726;23.268;2022-07-26T08:43:03;94925.44;;;30.15;52.54
22647;BME280;11490;42.726;23.268;2022-07-26T08:45:30;94923.94;;;30.21;53.84
22647;BME280;11490;42.726;23.268;2022-07-26T08:47:59;94919.03;;;30.57;50.81
22647;BME280;11490;42.726;23.268;2022-07-26T08:50:26;94929.25;;;30.60;49.50
22647;BME280;11490;42.726;23.268;2022-07-26T08:52:54;94923.22;;;30.25;49.30
22647;BME280;11490;42.726;23.268;2022-07-26T08:55:23;94921.66;;;30.50;50.82
22647;BME280;11490;42.726;23.268;2022-07-26T08:57:48;94916.38;;;30.97;49.55
22647;BME280;11490;42.726;23.268;2022-07-26T09:00:24;94917.16;;;30.94;49.99
22647;BME280;11490;42.726;23.268;2022-07-26T09:02:52;94915.56;;;30.93;49.94
22647;BME280;11490;42.726;23.268;2022-07-26T09:05:19;94905.25;;;30.87;48.00
22647;BME280;11490;42.726;23.268;2022-07-26T09:07:45;94908.47;;;30.92;48.35
22647;BME280;11490;42.726;23.268;2022-07-26T09:10:14;94913.50;;;31.17;47.58
22647;BME280;11490;42.726;23.268;2022-07-26T09:12:40;94914.50;;;31.05;48.22
22647;BME280;11490;42.726;23.268;2022-07-26T09:15:16;94919.75;;;31.14;46.49
22647;BME280;11490;42.726;23.268;2022-07-26T09:17:44;94907.56;;;31.48;46.44
22647;BME280;11490;42.726;23.268;2022-07-26T09:20:11;94908.44;;;31.59;45.38
22647;BME280;11490;42.726;23.268;2022-07-26T09:23:07;94907.91;;;31.84;44.71
22647;BME280;11490;42.726;23.268;2022-07-26T09:25:36;94909.28;;;32.04;44.38
22647;BME280;11490;42.726;23.268;2022-07-26T09:28:03;94912.38;;;32.46;43.62
22647;BME280;11490;42.726;23.268;2022-07-26T09:30:30;94901.31;;;32.46;42.17
22647;BME280;11490;42.726;23.268;2022-07-26T09:35:22;94890.38;;;32.64;41.01
22647;BME280;11490;42.726;23.268;2022-07-26T09:37:48;94897.63;;;32.83;39.18
22647;BME280;11490;42.726;23.268;2022-07-26T09:40:16;94893.69;;;32.91;39.78
22647;BME280;11490;42.726;23.268;2022-07-26T09:42:56;94887.78;;;32.89;39.40
22647;BME280;11490;42.726;23.268;2022-07-26T09:45:22;94895.22;;;32.78;41.02
22647;BME280;11490;42.726;23.268;2022-07-26T09:47:48;94894.50;;;32.88;41.18
22647;BME280;11490;42.726;23.268;2022-07-26T09:50:18;94894.31;;;32.60;41.00
22647;BME280;11490;42.726;23.268;2022-07-26T09:55:22;94885.41;;;32.26;41.05
22647;BME280;11490;42.726;23.268;2022-07-26T09:57:50;94872.75;;;32.21;41.54
22647;BME280;11490;42.726;23.268;2022-07-26T10:00:17;94878.78;;;32.37;43.27
22647;BME280;11490;42.726;23.268;2022-07-26T10:02:43;94877.75;;;32.60;40.62
22647;BME280;11490;42.726;23.268;2022-07-26T10:05:17;94879.69;;;32.56;38.97
22647;BME280;11490;42.726;23.268;2022-07-26T10:07:51;94790.00;;;32.28;39.03
22647;BME280;11490;42.726;23.268;2022-07-26T10:10:47;94882.00;;;33.22;36.94
22647;BME280;11490;42.726;23.268;2022-07-26T10:13:11;94829.88;;;33.24;37.58
22647;BME280;11490;42.726;23.268;2022-07-26T10:15:38;94874.16;;;33.53;36.22
22647;BME280;11490;42.726;23.268;2022-07-26T10:18:06;94873.84;;;33.86;34.73
22647;BME280;11490;42.726;23.268;2022-07-26T10:20:49;94835.09;;;33.86;35.43
22647;BME280;11490;42.726;23.268;2022-07-26T10:23:35;94865.53;;;34.00;34.09
22647;BME280;11490;42.726;23.268;2022-07-26T10:26:03;94865.13;;;34.20;33.36
22647;BME280;11490;42.726;23.268;2022-07-26T10:28:30;94849.28;;;33.53;34.83
22647;BME280;11490;42.726;23.268;2022-07-26T10:33:46;94862.38;;;34.23;33.82
22647;BME280;11490;42.726;23.268;2022-07-26T10:38:59;94852.78;;;34.63;33.95
22647;BME280;11490;42.726;23.268;2022-07-26T10:41:33;94824.41;;;34.10;33.82
22647;BME280;11490;42.726;23.268;2022-07-26T10:44:26;94844.16;;;34.40;32.00
22647;BME280;11490;42.726;23.268;2022-07-26T10:49:39;94844.78;;;34.94;31.94
22647;BME280;11490;42.726;23.268;2022-07-26T10:52:38;94841.00;;;34.31;31.39
22647;BME280;11490;42.726;23.268;2022-07-26T10:57:30;94829.06;;;34.62;31.72
22647;BME280;11490;42.726;23.268;2022-07-26T10:59:56;94821.22;;;34.36;32.77
22647;BME280;11490;42.726;23.268;2022-07-26T11:02:24;94827.81;;;34.88;32.03
22647;BME280;11490;42.726;23.268;2022-07-26T11:05:03;94819.66;;;34.28;32.40
22647;BME280;11490;42.726;23.268;2022-07-26T11:07:30;94811.69;;;34.51;32.81
22647;BME280;11490;42.726;23.268;2022-07-26T11:09:59;94808.47;;;34.74;32.40
22647;BME280;11490;42.726;23.268;2022-07-26T11:12:25;94800.34;;;35.08;31.80
22647;BME280;11490;42.726;23.268;2022-07-26T11:14:51;94802.47;;;34.90;31.91
22647;BME280;11490;42.726;23.268;2022-07-26T11:17:29;94795.13;;;34.23;32.45
22647;BME280;11490;42.726;23.268;2022-07-26T11:19:55;94789.50;;;34.58;31.38
22647;BME280;11490;42.726;23.268;2022-07-26T11:22:21;94786.53;;;35.01;32.53
22647;BME280;11490;42.726;23.268;2022-07-26T11:24:54;94795.44;;;35.40;32.57
22647;BME280;11490;42.726;23.268;2022-07-26T11:27:20;94775.38;;;35.77;30.98
22647;BME280;11490;42.726;23.268;2022-07-26T11:29:45;94772.69;;;35.01;30.28
22647;BME280;11490;42.726;23.268;2022-07-26T11:32:19;94771.19;;;34.86;30.05
22647;BME280;11490;42.726;23.268;2022-07-26T11:34:45;94772.31;;;34.99;31.21
22647;BME280;11490;42.726;23.268;2022-07-26T11:37:11;94763.47;;;34.31;30.98
22647;BME280;11490;42.726;23.268;2022-07-26T11:39:36;94765.31;;;34.62;31.44
22647;BME280;11490;42.726;23.268;2022-07-26T11:42:07;94765.00;;;34.46;31.28
22647;BME280;11490;42.726;23.268;2022-07-26T11:44:33;94755.44;;;34.61;31.27
22647;BME280;11490;42.726;23.268;2022-07-26T11:47:08;94757.56;;;34.15;31.65
22647;BME280;11490;42.726;23.268;2022-07-26T11:49:34;94750.09;;;33.69;31.98
22647;BME280;11490;42.726;23.268;2022-07-26T11:52:01;94741.38;;;34.03;32.02
22647;BME280;11490;42.726;23.268;2022-07-26T11:54:28;94753.19;;;34.21;32.33
22647;BME280;11490;42.726;23.268;2022-07-26T11:57:03;94752.41;;;34.20;30.49
22647;BME280;11490;42.726;23.268;2022-07-26T11:59:30;94754.00;;;34.18;31.13
22647;BME280;11490;42.726;23.268;2022-07-26T12:01:57;94751.94;;;34.47;31.79
22647;BME280;11490;42.726;23.268;2022-07-26T12:04:31;94749.06;;;34.71;31.41
22647;BME280;11490;42.726;23.268;2022-07-26T12:06:58;94742.72;;;34.82;30.05
22647;BME280;11490;42.726;23.268;2022-07-26T12:09:35;94733.25;;;34.76;31.03
22647;BME280;11490;42.726;23.268;2022-07-26T12:12:03;94739.50;;;34.87;30.81
22647;BME280;11490;42.726;23.268;2022-07-26T12:14:31;94734.81;;;34.69;29.78
22647;BME280;11490;42.726;23.268;2022-07-26T12:16:57;94738.84;;;34.54;29.73
22647;BME280;11490;42.726;23.268;2022-07-26T12:19:24;94738.97;;;34.12;28.19
22647;BME280;11490;42.726;23.268;2022-07-26T12:21:55;94733.81;;;34.21;29.10
22647;BME280;11490;42.726;23.268;2022-07-26T12:24:41;94726.31;;;34.11;29.17
22647;BME280;11490;42.726;23.268;2022-07-26T12:27:24;94719.19;;;34.24;30.36
22647;BME280;11490;42.726;23.268;2022-07-26T12:29:54;94726.25;;;34.39;29.86
22647;BME280;11490;42.726;23.268;2022-07-26T12:35:06;94718.72;;;34.43;28.28
22647;BME280;11490;42.726;23.268;2022-07-26T12:40:14;94709.59;;;34.46;30.60
22647;BME280;11490;42.726;23.268;2022-07-26T12:42:58;94724.28;;;34.40;30.09
22647;BME280;11490;42.726;23.268;2022-07-26T12:45:33;94725.50;;;34.35;28.98
22647;BME280;11490;42.726;23.268;2022-07-26T12:48:02;94709.31;;;34.09;28.96
22647;BME280;11490;42.726;23.268;2022-07-26T12:50:29;94702.19;;;34.08;28.15
22647;BME280;11490;42.726;23.268;2022-07-26T12:53:01;94720.38;;;34.19;27.67
22647;BME280;11490;42.726;23.268;2022-07-26T12:55:27;94718.47;;;33.95;27.16
22647;BME280;11490;42.726;23.268;2022-07-26T12:57:52;94721.63;;;33.93;29.08
22647;BME280;11490;42.726;23.268;2022-07-26T13:00:19;94705.03;;;33.61;27.90
22647;BME280;11490;42.726;23.268;2022-07-26T13:02:46;94716.88;;;33.69;27.41
22647;BME280;11490;42.726;23.268;2022-07-26T13:05:11;94712.97;;;33.35;28.10
22647;BME280;11490;42.726;23.268;2022-07-26T13:07:37;94708.59;;;33.62;29.44
22647;BME280;11490;42.726;23.268;2022-07-26T13:10:04;94709.41;;;33.62;28.74
22647;BME280;11490;42.726;23.268;2022-07-26T13:12:30;94710.59;;;33.79;28.26
22647;BME280;11490;42.726;23.268;2022-07-26T13:14:55;94700.72;;;33.78;27.99